Byron, Michigan
Current Conditions -  °F | °C
As of 3:15 AM on Saturday 25 Oct 2014 (Local Time) from KOZW Reporting Station
Haze Haze  
Wind Chill:   Ceiling: Unl
Heat Index:   Visibility: 3mi
Dew Point:   Wind: 5mph
Humidity: 98%   Direction: 200°SSW
Pressure: 29.89"   Gusts: NA
Location:  42.82°N, 83.94°W
Report Text: KOZW 250715Z AUTO 20004KT 3SM BR CLR 08/08 A2989 RMK AO2 T00780075
Loading
Personal Weather Stations






























Interactive Weather Map
Tropical Storm Tracking
New forecast layout! Learn more

10-Day Weather Forecast

Advertisements
Track Severe Weather on mobile